createdAt,value
2019-02-22T00:01:15.938Z,9.04
2019-02-22T00:03:44.458Z,9.05
2019-02-22T00:06:12.898Z,9.06
2019-02-22T00:08:41.351Z,9.01
2019-02-22T00:11:09.799Z,9.02
2019-02-22T00:13:38.272Z,9.03
2019-02-22T00:16:06.699Z,9.04
2019-02-22T00:18:35.145Z,9.01
2019-02-22T00:21:03.582Z,9.02
2019-02-22T00:23:33.516Z,9.03
2019-02-22T00:26:01.947Z,9.02
2019-02-22T00:28:30.387Z,9.04
2019-02-22T00:30:58.920Z,9.04
2019-02-22T00:33:27.348Z,9.05
2019-02-22T00:35:55.868Z,9.05
2019-02-22T00:38:27.000Z,9.05
2019-02-22T00:40:54.674Z,9.05
2019-02-22T00:43:23.100Z,9.06
2019-02-22T00:45:51.529Z,9.05
2019-02-22T00:48:19.976Z,9.06
2019-02-22T00:50:48.427Z,9.06
2019-02-22T00:53:16.908Z,9.06
2019-02-22T00:55:45.308Z,9.04
2019-02-22T00:58:13.861Z,9.05
2019-02-22T01:00:42.295Z,9.05
2019-02-22T01:03:10.725Z,9.05
2019-02-22T01:05:39.191Z,9.05
2019-02-22T01:08:07.652Z,9.05
2019-02-22T01:10:36.087Z,9.04
2019-02-22T01:13:04.558Z,9.06
2019-02-22T01:15:33.079Z,9.08
2019-02-22T01:18:01.543Z,9.08
2019-02-22T01:20:30.002Z,9.10
2019-02-22T01:22:58.539Z,9.10
2019-02-22T01:25:27.013Z,9.08
2019-02-22T01:27:55.612Z,9.07
2019-02-22T01:30:24.051Z,9.08
2019-02-22T01:32:52.534Z,9.08
2019-02-22T01:35:20.962Z,9.10
2019-02-22T01:37:49.427Z,9.09
2019-02-22T01:40:17.905Z,9.09
2019-02-22T01:42:46.346Z,9.05
2019-02-22T01:45:14.807Z,9.06
2019-02-22T01:47:43.250Z,9.05
2019-02-22T01:50:14.956Z,9.05
2019-02-22T01:52:43.397Z,9.05
2019-02-22T01:55:11.816Z,9.01
2019-02-22T01:57:40.247Z,9.04
2019-02-22T02:00:11.109Z,9.05
2019-02-22T02:02:39.599Z,9.03
2019-02-22T02:05:08.126Z,9.01
2019-02-22T02:07:36.608Z,8.99
2019-02-22T02:10:06.858Z,8.98
2019-02-22T02:12:35.238Z,8.99
2019-02-22T02:15:03.872Z,8.99
2019-02-22T02:17:32.280Z,9.00
2019-02-22T02:20:01.118Z,8.98
2019-02-22T02:22:29.793Z,8.98
2019-02-22T02:24:58.319Z,8.99
2019-02-22T02:27:26.785Z,8.96
2019-02-22T02:29:55.265Z,8.93
2019-02-22T02:32:23.701Z,8.96
2019-02-22T02:34:52.146Z,8.93
2019-02-22T02:37:20.570Z,8.92
2019-02-22T02:39:49.000Z,8.94
2019-02-22T02:42:17.513Z,8.95
2019-02-22T02:44:45.947Z,8.95
2019-02-22T02:47:14.423Z,8.94
2019-02-22T02:49:42.843Z,8.93
2019-02-22T02:52:11.415Z,8.91
2019-02-22T02:54:39.860Z,8.93
2019-02-22T02:57:08.315Z,8.97
2019-02-22T02:59:36.791Z,8.96
2019-02-22T03:02:06.857Z,8.95
2019-02-22T03:04:35.283Z,8.92
2019-02-22T03:07:11.013Z,8.94
2019-02-22T03:09:39.535Z,8.95
2019-02-22T03:12:07.967Z,8.97
2019-02-22T03:14:36.404Z,8.95
2019-02-22T03:17:05.004Z,8.97
2019-02-22T03:19:33.399Z,8.97
2019-02-22T03:22:01.841Z,8.95
2019-02-22T03:24:30.278Z,8.99
2019-02-22T03:26:58.713Z,8.93
2019-02-22T03:29:27.121Z,8.96
2019-02-22T03:31:55.581Z,8.91
2019-02-22T03:34:24.040Z,8.94
2019-02-22T03:36:52.573Z,8.92
2019-02-22T03:39:21.000Z,8.93
2019-02-22T03:41:49.432Z,8.96
2019-02-22T03:44:17.943Z,8.90
2019-02-22T03:46:46.358Z,8.89
2019-02-22T03:49:14.800Z,8.91
2019-02-22T03:51:43.277Z,8.95
2019-02-22T03:54:11.923Z,8.91
2019-02-22T03:56:40.353Z,8.89
2019-02-22T03:59:08.871Z,8.88
2019-02-22T04:01:37.386Z,8.89
2019-02-22T04:04:05.853Z,8.88
2019-02-22T04:06:34.294Z,8.93
2019-02-22T04:09:02.800Z,8.86
2019-02-22T04:11:31.318Z,8.86
2019-02-22T04:13:59.770Z,8.82
2019-02-22T04:16:28.207Z,8.87
2019-02-22T04:18:56.702Z,8.92
2019-02-22T04:21:25.141Z,8.81
2019-02-22T04:23:53.828Z,8.81
2019-02-22T04:26:22.231Z,8.82
2019-02-22T04:28:52.289Z,8.83
2019-02-22T04:31:20.739Z,8.82
2019-02-22T04:33:49.164Z,8.83
2019-02-22T04:36:17.607Z,8.82
2019-02-22T04:38:46.098Z,8.80
2019-02-22T04:41:14.532Z,8.79
2019-02-22T04:43:42.984Z,8.77
2019-02-22T04:46:11.498Z,8.81
2019-02-22T04:48:39.970Z,8.82
2019-02-22T04:51:08.766Z,8.79
2019-02-22T04:53:37.209Z,8.80
2019-02-22T04:56:05.652Z,8.77
2019-02-22T04:58:34.076Z,8.79
2019-02-22T05:01:02.594Z,8.81
2019-02-22T05:03:31.036Z,8.79
2019-02-22T05:05:59.501Z,8.77
2019-02-22T05:08:27.924Z,8.80
2019-02-22T05:10:56.351Z,8.74
2019-02-22T05:13:24.817Z,8.74
2019-02-22T05:15:53.409Z,8.75
2019-02-22T05:18:21.880Z,8.78
2019-02-22T05:20:50.393Z,8.69
2019-02-22T05:23:18.883Z,8.67
2019-02-22T05:25:47.318Z,8.68
2019-02-22T05:28:15.751Z,8.62
2019-02-22T05:30:44.209Z,8.64
2019-02-22T05:33:12.634Z,8.65
2019-02-22T05:35:41.067Z,8.64
2019-02-22T05:38:09.613Z,8.63
2019-02-22T05:40:38.060Z,8.60
2019-02-22T05:43:06.538Z,8.63
2019-02-22T05:45:34.980Z,8.59
2019-02-22T05:48:03.415Z,8.59
2019-02-22T05:50:31.872Z,8.57
2019-02-22T05:53:00.324Z,8.53
2019-02-22T05:55:28.838Z,8.56
2019-02-22T05:57:57.373Z,8.54
2019-02-22T06:00:26.004Z,8.55
2019-02-22T06:02:54.638Z,8.51
2019-02-22T06:05:23.565Z,8.54
2019-02-22T06:07:52.151Z,8.48
2019-02-22T06:10:20.671Z,8.50
2019-02-22T06:12:49.618Z,8.53
2019-02-22T06:15:18.067Z,8.49
2019-02-22T06:17:46.568Z,8.47
2019-02-22T06:20:14.956Z,8.45
2019-02-22T06:22:43.431Z,8.47
2019-02-22T06:25:11.900Z,8.48
2019-02-22T06:27:40.417Z,8.43
2019-02-22T06:30:10.524Z,8.43
2019-02-22T06:32:41.971Z,8.45
2019-02-22T06:35:09.337Z,8.41
2019-02-22T06:37:38.157Z,8.37
2019-02-22T06:40:09.193Z,8.34
2019-02-22T06:42:45.370Z,8.35
2019-02-22T06:45:08.953Z,8.38
2019-02-22T06:47:37.381Z,8.39
2019-02-22T06:50:07.883Z,8.43
2019-02-22T06:52:36.387Z,8.35
2019-02-22T06:55:06.250Z,8.36
2019-02-22T06:57:34.829Z,8.31
2019-02-22T07:00:05.468Z,8.34
2019-02-22T07:02:33.924Z,8.34
2019-02-22T07:05:02.379Z,8.28
2019-02-22T07:07:30.826Z,8.29
2019-02-22T07:09:59.365Z,8.34
2019-02-22T07:12:32.092Z,8.33
2019-02-22T07:15:00.652Z,8.30
2019-02-22T07:17:29.096Z,8.28
2019-02-22T07:19:57.607Z,8.28
2019-02-22T07:22:26.155Z,8.30
2019-02-22T07:24:54.571Z,8.28
2019-02-22T07:27:22.985Z,8.28
2019-02-22T07:29:51.587Z,8.19
2019-02-22T07:32:20.021Z,8.18
2019-02-22T07:34:48.470Z,8.19
2019-02-22T07:37:16.923Z,8.18
2019-02-22T07:39:45.367Z,8.16
2019-02-22T07:42:13.826Z,8.13
2019-02-22T07:44:42.544Z,8.16
2019-02-22T07:47:11.101Z,8.09
2019-02-22T07:49:39.688Z,8.12
2019-02-22T07:52:08.181Z,8.07
2019-02-22T07:54:36.619Z,8.02
2019-02-22T07:57:05.128Z,7.99
2019-02-22T07:59:33.550Z,7.93
2019-02-22T08:02:01.993Z,7.91
2019-02-22T08:04:30.444Z,7.85
2019-02-22T08:06:58.892Z,7.88
2019-02-22T08:09:27.365Z,7.84
2019-02-22T08:11:55.868Z,7.86
2019-02-22T08:14:24.294Z,7.86
2019-02-22T08:16:52.819Z,7.90
2019-02-22T08:19:21.267Z,7.91
2019-02-22T08:21:49.757Z,7.96
2019-02-22T08:24:18.219Z,7.89
2019-02-22T08:26:46.765Z,7.99
2019-02-22T08:29:15.219Z,8.05
2019-02-22T08:31:43.670Z,8.06
2019-02-22T08:34:12.090Z,8.05
2019-02-22T08:36:40.560Z,8.07
2019-02-22T08:39:09.031Z,8.09
2019-02-22T08:41:37.482Z,8.06
2019-02-22T08:44:06.009Z,8.03
2019-02-22T08:46:34.451Z,8.11
2019-02-22T08:49:02.872Z,8.13
2019-02-22T08:51:31.334Z,8.13
2019-02-22T08:53:59.765Z,8.13
2019-02-22T08:56:31.273Z,8.15
2019-02-22T08:58:59.701Z,8.16
2019-02-22T09:01:28.255Z,8.14
2019-02-22T09:03:56.749Z,7.87
2019-02-22T09:06:25.323Z,7.69
2019-02-22T09:08:53.724Z,7.62
2019-02-22T09:11:22.162Z,7.35
2019-02-22T09:13:50.677Z,7.07
2019-02-22T09:16:19.085Z,7.05
2019-02-22T09:18:47.528Z,6.85
2019-02-22T09:21:16.015Z,6.69
2019-02-22T09:23:44.450Z,6.71
2019-02-22T09:26:12.909Z,6.43
2019-02-22T09:28:41.348Z,6.38
2019-02-22T09:31:09.867Z,6.01
2019-02-22T09:33:38.785Z,5.93
2019-02-22T09:36:07.239Z,6.06
2019-02-22T09:38:35.700Z,6.00
2019-02-22T09:41:04.344Z,5.93
2019-02-22T09:43:32.824Z,5.95
2019-02-22T09:46:01.268Z,6.01
2019-02-22T09:48:29.774Z,5.78
2019-02-22T09:50:58.246Z,5.66
2019-02-22T09:53:26.789Z,5.73
2019-02-22T09:55:55.172Z,5.53
2019-02-22T09:58:23.721Z,5.64
2019-02-22T10:00:52.128Z,5.44
2019-02-22T10:03:20.569Z,5.48
2019-02-22T10:05:49.114Z,5.40
2019-02-22T10:08:17.522Z,5.42
2019-02-22T10:10:46.075Z,5.33
2019-02-22T10:13:14.514Z,5.25
2019-02-22T10:15:42.949Z,5.32
2019-02-22T10:18:11.392Z,5.28
2019-02-22T10:20:40.005Z,5.28
2019-02-22T10:23:08.372Z,5.18
2019-02-22T10:25:36.839Z,5.23
2019-02-22T10:28:05.260Z,5.13
2019-02-22T10:30:33.722Z,5.28
2019-02-22T10:33:02.159Z,5.35
2019-02-22T10:35:30.638Z,5.21
2019-02-22T10:37:59.147Z,5.15
2019-02-22T10:40:27.654Z,5.12
2019-02-22T10:42:58.481Z,5.00
2019-02-22T10:45:27.034Z,4.78
2019-02-22T10:47:55.454Z,5.05
2019-02-22T10:50:24.043Z,4.78
2019-02-22T10:53:01.853Z,4.54
2019-02-22T10:55:22.655Z,4.57
2019-02-22T10:57:51.304Z,4.49
2019-02-22T11:00:19.789Z,4.45
2019-02-22T11:02:48.263Z,4.49
2019-02-22T11:05:16.702Z,4.52
2019-02-22T11:07:45.182Z,4.48
2019-02-22T11:10:14.689Z,4.14
2019-02-22T11:12:43.127Z,4.24
2019-02-22T11:15:13.100Z,4.49
2019-02-22T11:17:41.624Z,4.40
2019-02-22T11:20:11.447Z,4.66
2019-02-22T11:22:39.859Z,4.51
2019-02-22T11:25:11.521Z,4.59
2019-02-22T11:27:39.972Z,4.29
2019-02-22T11:30:13.846Z,4.22
2019-02-22T11:32:42.389Z,4.23
2019-02-22T11:35:11.279Z,4.05
2019-02-22T11:37:39.739Z,3.83
2019-02-22T11:40:10.144Z,3.73
2019-02-22T11:42:38.613Z,3.76
2019-02-22T11:45:09.063Z,3.76
2019-02-22T11:47:37.539Z,3.82
2019-02-22T11:50:10.676Z,3.66
2019-02-22T11:52:39.111Z,3.81
2019-02-22T11:55:09.350Z,3.96
2019-02-22T11:57:38.019Z,3.98
2019-02-22T12:00:19.092Z,4.12
2019-02-22T12:02:48.080Z,3.98
2019-02-22T12:05:16.556Z,3.97
2019-02-22T12:07:44.991Z,4.15
2019-02-22T12:10:14.020Z,4.22
2019-02-22T12:12:42.472Z,4.36
2019-02-22T12:15:13.181Z,4.29
2019-02-22T12:17:41.695Z,4.42
2019-02-22T12:20:11.242Z,4.65
2019-02-22T12:22:39.646Z,4.60
2019-02-22T12:25:13.142Z,4.60
2019-02-22T12:27:41.580Z,4.76
2019-02-22T12:30:15.127Z,4.82
2019-02-22T12:32:43.588Z,4.57
2019-02-22T12:35:12.286Z,4.72
2019-02-22T12:37:40.755Z,4.62
2019-02-22T12:40:11.124Z,4.54
2019-02-22T12:42:39.578Z,4.59
2019-02-22T12:45:10.351Z,4.58
2019-02-22T12:47:38.803Z,4.32
2019-02-22T12:50:12.657Z,4.42
2019-02-22T12:52:44.106Z,4.47
2019-02-22T12:55:12.509Z,4.33
2019-02-22T12:57:41.009Z,4.44
2019-02-22T13:00:15.046Z,4.23
2019-02-22T13:02:43.513Z,4.29
2019-02-22T13:05:14.897Z,4.25
2019-02-22T13:07:43.351Z,4.26
2019-02-22T13:10:11.974Z,4.22
2019-02-22T13:12:40.432Z,4.09
2019-02-22T13:15:14.476Z,4.17
2019-02-22T13:17:41.618Z,4.22
2019-02-22T13:20:10.665Z,4.24
2019-02-22T13:22:39.140Z,4.20
2019-02-22T13:25:10.270Z,4.27
2019-02-22T13:27:38.706Z,4.24
2019-02-22T13:30:10.190Z,4.28
2019-02-22T13:32:38.662Z,4.37
2019-02-22T13:35:07.146Z,4.39
2019-02-22T13:37:35.615Z,4.20
2019-02-22T13:40:05.703Z,4.22
2019-02-22T13:42:36.099Z,4.19
2019-02-22T13:45:07.092Z,4.25
2019-02-22T13:47:35.545Z,4.05
2019-02-22T13:50:09.491Z,4.14
2019-02-22T13:52:38.091Z,4.15
2019-02-22T13:55:07.972Z,4.20
2019-02-22T13:57:36.478Z,4.14
2019-02-22T14:00:07.957Z,4.04
2019-02-22T14:02:37.865Z,4.12
2019-02-22T14:05:07.229Z,4.01
2019-02-22T14:07:35.697Z,3.98
2019-02-22T14:10:05.421Z,4.10
2019-02-22T14:12:33.858Z,4.07
2019-02-22T14:15:02.323Z,4.17
2019-02-22T14:17:30.798Z,4.05
2019-02-22T14:19:59.212Z,3.88
2019-02-22T14:22:27.883Z,3.94
2019-02-22T14:24:56.421Z,3.98
2019-02-22T14:27:24.845Z,4.07
2019-02-22T14:29:53.403Z,4.13
2019-02-22T14:32:21.910Z,4.04
2019-02-22T14:34:50.330Z,3.87
2019-02-22T14:37:19.345Z,4.01
2019-02-22T14:39:48.101Z,4.03
2019-02-22T14:42:16.559Z,4.08
2019-02-22T14:44:45.052Z,4.18
2019-02-22T14:47:13.588Z,4.22
2019-02-22T14:49:42.015Z,4.26
2019-02-22T14:52:12.693Z,4.23
2019-02-22T14:54:42.000Z,4.15
2019-02-22T14:57:10.398Z,4.15
2019-02-22T14:59:38.867Z,4.22
2019-02-22T15:02:07.347Z,4.26
2019-02-22T15:04:36.352Z,4.13
2019-02-22T15:07:04.984Z,4.21
2019-02-22T15:09:33.494Z,4.19
2019-02-22T15:12:01.980Z,4.22
2019-02-22T15:14:30.444Z,4.29
2019-02-22T15:17:03.614Z,4.36
2019-02-22T15:19:32.029Z,4.33
2019-02-22T15:22:01.239Z,4.19
2019-02-22T15:24:32.941Z,4.19
2019-02-22T15:27:01.177Z,4.16
2019-02-22T15:29:29.623Z,4.05
2019-02-22T15:31:58.086Z,3.98
2019-02-22T15:34:26.529Z,4.06
2019-02-22T15:36:55.012Z,4.02
2019-02-22T15:39:23.432Z,4.10
2019-02-22T15:41:51.937Z,4.07
2019-02-22T15:44:20.352Z,4.11
2019-02-22T15:46:48.774Z,4.14
2019-02-22T15:49:17.282Z,4.07
2019-02-22T15:51:49.106Z,3.93
2019-02-22T15:54:17.516Z,3.97
2019-02-22T15:56:46.021Z,4.07
2019-02-22T15:59:14.456Z,4.07
2019-02-22T16:01:42.876Z,3.98
2019-02-22T16:04:12.998Z,4.05
2019-02-22T16:06:41.423Z,3.86
2019-02-22T16:09:09.883Z,3.94
2019-02-22T16:11:38.386Z,3.94
2019-02-22T16:14:07.384Z,3.91
2019-02-22T16:16:36.129Z,3.95
2019-02-22T16:19:04.620Z,4.01
2019-02-22T16:21:33.065Z,4.04
2019-02-22T16:24:01.564Z,4.02
2019-02-22T16:26:30.963Z,3.94
2019-02-22T16:28:59.467Z,3.88
2019-02-22T16:31:27.916Z,3.91
2019-02-22T16:33:56.405Z,3.90
2019-02-22T16:36:24.853Z,3.93
2019-02-22T16:38:53.291Z,3.85
2019-02-22T16:41:21.826Z,3.81
2019-02-22T16:43:50.266Z,3.83
2019-02-22T16:46:18.724Z,3.78
2019-02-22T16:48:47.496Z,3.66
2019-02-22T16:51:15.958Z,3.66
2019-02-22T16:53:44.397Z,3.60
2019-02-22T16:56:12.838Z,3.62
2019-02-22T16:58:41.349Z,3.55
2019-02-22T17:01:10.585Z,3.56
2019-02-22T17:03:39.088Z,3.52
2019-02-22T17:06:07.646Z,3.40
2019-02-22T17:08:36.127Z,3.36
2019-02-22T17:11:04.684Z,3.34
2019-02-22T17:13:33.173Z,3.34
2019-02-22T17:16:01.734Z,3.32
2019-02-22T17:18:30.290Z,3.30
2019-02-22T17:20:58.711Z,3.32
2019-02-22T17:23:27.160Z,3.27
2019-02-22T17:25:55.627Z,3.28
2019-02-22T17:28:29.467Z,3.24
2019-02-22T17:30:57.922Z,3.26
2019-02-22T17:33:26.371Z,3.19
2019-02-22T17:35:54.801Z,3.11
2019-02-22T17:38:23.257Z,3.09
2019-02-22T17:40:51.676Z,3.11
2019-02-22T17:43:20.259Z,3.07
2019-02-22T17:45:49.582Z,3.10
2019-02-22T17:48:18.045Z,3.07
2019-02-22T17:50:46.559Z,3.08
2019-02-22T17:53:15.072Z,3.05
2019-02-22T17:55:43.535Z,2.98
2019-02-22T17:58:11.973Z,2.94
2019-02-22T18:00:40.582Z,2.90
2019-02-22T18:03:09.082Z,2.89
2019-02-22T18:05:37.563Z,2.84
2019-02-22T18:08:06.056Z,2.81
2019-02-22T18:10:34.495Z,2.76
2019-02-22T18:13:03.376Z,2.68
2019-02-22T18:15:32.441Z,2.63
2019-02-22T18:18:00.894Z,2.57
2019-02-22T18:20:29.400Z,2.61
2019-02-22T18:22:57.870Z,2.67
2019-02-22T18:25:26.280Z,2.70
2019-02-22T18:27:54.832Z,2.59
2019-02-22T18:30:24.884Z,2.55
2019-02-22T18:32:53.315Z,2.55
2019-02-22T18:35:21.842Z,2.42
2019-02-22T18:37:52.966Z,2.33
2019-02-22T18:40:23.187Z,2.26
2019-02-22T18:42:52.488Z,2.27
2019-02-22T18:45:20.916Z,2.29
2019-02-22T18:47:49.372Z,2.35
2019-02-22T18:50:17.859Z,2.36
2019-02-22T18:52:46.297Z,2.40
2019-02-22T18:55:14.845Z,2.39
2019-02-22T18:57:43.256Z,2.40
2019-02-22T19:00:20.642Z,2.33
2019-02-22T19:02:49.554Z,2.31
2019-02-22T19:05:17.969Z,2.34
2019-02-22T19:07:46.619Z,2.24
2019-02-22T19:10:17.003Z,2.26
2019-02-22T19:12:45.453Z,2.27
2019-02-22T19:15:15.034Z,2.21
2019-02-22T19:17:43.606Z,2.23
2019-02-22T19:20:14.940Z,2.20
2019-02-22T19:22:43.430Z,2.19
2019-02-22T19:25:11.945Z,2.20
2019-02-22T19:27:40.392Z,2.14
2019-02-22T19:30:20.718Z,2.17
2019-02-22T19:32:49.154Z,2.11
2019-02-22T19:35:17.669Z,2.08
2019-02-22T19:37:46.164Z,2.05
2019-02-22T19:40:20.698Z,2.02
2019-02-22T19:42:49.105Z,1.94
2019-02-22T19:45:17.637Z,1.94
2019-02-22T19:47:46.137Z,1.97
2019-02-22T19:50:15.253Z,1.97
2019-02-22T19:52:43.904Z,1.98
2019-02-22T19:55:14.572Z,1.91
2019-02-22T19:57:43.041Z,1.94
2019-02-22T20:00:23.004Z,1.92
2019-02-22T20:02:51.824Z,1.89
2019-02-22T20:05:20.408Z,1.77
2019-02-22T20:07:49.242Z,1.76
2019-02-22T20:10:20.229Z,1.64
2019-02-22T20:12:48.674Z,1.62
2019-02-22T20:15:17.847Z,1.61
2019-02-22T20:17:53.667Z,1.64
2019-02-22T20:20:18.118Z,1.63
2019-02-22T20:22:46.598Z,1.64
2019-02-22T20:25:15.144Z,1.67
2019-02-22T20:27:43.664Z,1.68
2019-02-22T20:30:16.505Z,1.67
2019-02-22T20:32:45.006Z,1.66
2019-02-22T20:35:19.855Z,1.62
2019-02-22T20:37:52.876Z,1.60
2019-02-22T20:40:18.489Z,1.58
2019-02-22T20:42:47.132Z,1.57
2019-02-22T20:45:15.771Z,1.55
2019-02-22T20:47:44.175Z,1.53
2019-02-22T20:50:14.257Z,1.51
2019-02-22T20:52:42.716Z,1.48
2019-02-22T20:55:11.893Z,1.46
2019-02-22T20:57:40.326Z,1.42
2019-02-22T21:00:11.564Z,1.42
2019-02-22T21:02:40.137Z,1.43
2019-02-22T21:05:10.234Z,1.45
2019-02-22T21:07:38.726Z,1.47
2019-02-22T21:10:10.457Z,1.45
2019-02-22T21:12:38.905Z,1.42
2019-02-22T21:15:10.711Z,1.45
2019-02-22T21:17:39.146Z,1.47
2019-02-22T21:20:10.128Z,1.47
2019-02-22T21:22:38.565Z,1.39
2019-02-22T21:25:09.781Z,1.44
2019-02-22T21:27:38.228Z,1.46
2019-02-22T21:30:09.724Z,1.50
2019-02-22T21:32:38.212Z,1.51
2019-02-22T21:35:08.083Z,1.56
2019-02-22T21:37:36.692Z,1.46
2019-02-22T21:40:07.681Z,1.44
2019-02-22T21:42:36.199Z,1.44
2019-02-22T21:45:06.941Z,1.43
2019-02-22T21:47:35.428Z,1.41
2019-02-22T21:50:05.205Z,1.47
2019-02-22T21:52:33.673Z,1.44
2019-02-22T21:55:02.086Z,1.35
2019-02-22T21:57:30.545Z,1.37
2019-02-22T21:59:59.088Z,1.38
2019-02-22T22:02:27.514Z,1.35
2019-02-22T22:04:55.959Z,1.36
2019-02-22T22:07:24.389Z,1.32
2019-02-22T22:09:52.947Z,1.34
2019-02-22T22:12:21.444Z,1.32
2019-02-22T22:14:49.912Z,1.30
2019-02-22T22:17:18.340Z,1.35
2019-02-22T22:19:46.813Z,1.30
2019-02-22T22:22:15.232Z,1.30
2019-02-22T22:24:43.667Z,1.22
2019-02-22T22:27:12.106Z,1.26
2019-02-22T22:29:40.572Z,1.26
2019-02-22T22:32:09.366Z,1.29
2019-02-22T22:34:37.828Z,1.23
2019-02-22T22:37:06.335Z,1.28
2019-02-22T22:39:34.814Z,1.23
2019-02-22T22:42:03.248Z,1.20
2019-02-22T22:44:31.773Z,1.20
2019-02-22T22:47:00.198Z,1.15
2019-02-22T22:49:28.642Z,1.13
2019-02-22T22:51:57.089Z,1.12
2019-02-22T22:54:25.512Z,1.14
2019-02-22T22:56:53.968Z,1.14
2019-02-22T22:59:22.404Z,1.15
2019-02-22T23:01:51.338Z,1.15
2019-02-22T23:04:20.165Z,1.11
2019-02-22T23:06:48.587Z,1.13
2019-02-22T23:09:18.786Z,1.16
2019-02-22T23:11:47.232Z,1.11
2019-02-22T23:14:16.304Z,1.07
2019-02-22T23:16:44.836Z,1.08
2019-02-22T23:19:13.261Z,1.07
2019-02-22T23:21:41.681Z,1.04
2019-02-22T23:24:10.222Z,1.04
2019-02-22T23:26:38.685Z,1.03
2019-02-22T23:29:07.112Z,1.05
2019-02-22T23:31:35.587Z,0.97
2019-02-22T23:34:04.071Z,1.04
2019-02-22T23:36:32.515Z,0.99
2019-02-22T23:39:01.803Z,0.97
2019-02-22T23:41:30.221Z,0.95
2019-02-22T23:43:58.671Z,0.95
2019-02-22T23:46:27.110Z,0.96
2019-02-22T23:48:55.553Z,0.92
2019-02-22T23:51:24.015Z,0.94
2019-02-22T23:53:52.502Z,0.96
2019-02-22T23:56:21.165Z,0.94
2019-02-22T23:58:49.591Z,0.92
